Stratford-upon-Avon, United Kingdom
Current Conditions -  °F | °C
As of 1:50 AM on Saturday 25 Oct 2014 (Local Time) from EGBE Reporting Station
Light Fog Light Fog  
Wind Chill: 39°   Ceiling: Unl
Heat Index: 43°   Visibility: 6mi
Dew Point: 43°   Wind: 7mph
Humidity: 100%   Direction: 200°SSW
Pressure: 29.97"   Gusts: NA
Location:  52.19°N, 1.71°W
Report Text: EGBE 250050Z 20006KT 9999 MIFG FEW049 06/06 Q1015
Loading
Personal Weather Stations






























Interactive Weather Map
Tropical Storm Tracking
New forecast layout! Learn more

10-Day Weather Forecast

Advertisements
Track Severe Weather on mobile